Time;durP1;ratioP1;P1;durP2;ratioP2;P2;SDS_P1;SDS_P2;PMS_P1;PMS_P2;Temp;Humidity;BMP_temperature;BMP_pressure;BME280_temperature;BME280_humidity;BME280_pressure;Samples;Min_cycle;Max_cycle;Signal;HPM_P1;HPM_P2
2022/02/12 00:03:38;;;;;;;1999.90;999.90;;;;;;;2.55;69.57;102819.72;15728869;28;20045;-62
2022/02/12 00:11:12;;;;;;;1999.90;999.90;;;;;;;2.46;70.07;102818.31;15727744;28;20044;-61
2022/02/12 00:18:44;;;;;;;1999.90;999.90;;;;;;;2.39;70.92;102823.91;15727861;28;20139;-61
2022/02/12 00:26:19;;;;;;;1999.90;999.90;;;;;;;2.38;71.71;102829.63;15745191;28;20083;-64
2022/02/12 00:33:52;;;;;;;1999.90;999.90;;;;;;;2.33;71.85;102832.25;15710478;28;20052;-64
2022/02/12 00:41:25;;;;;;;1999.90;999.90;;;;;;;2.40;71.92;102864.19;15744707;28;20098;-66
2022/02/12 00:48:57;;;;;;;;;;;;;;;2.61;71.51;102854.66;15744776;28;20507;-65
2022/02/12 00:56:31;;;;;;;1999.90;999.90;;;;;;;2.29;72.12;102873.16;15743484;28;19924;-66
2022/02/12 01:04:03;;;;;;;;;;;;;;;2.27;72.39;102875.31;15744492;28;20057;-65
2022/02/12 01:11:37;;;;;;;1999.90;999.90;;;;;;;2.23;71.93;102887.84;15730758;28;19924;-65
2022/02/12 01:19:08;;;;;;;;;;;;;;;2.16;71.82;102885.16;15722284;28;20572;-63
2022/02/12 01:26:42;;;;;;;1999.90;999.90;;;;;;;2.04;70.92;102875.94;15754804;28;19920;-64
2022/02/12 01:34:14;;;;;;;;;;;;;;;1.95;72.16;102872.59;15738890;28;20044;-64
2022/02/12 01:41:47;;;;;;;1999.90;999.90;;;;;;;1.93;72.00;102885.75;15744242;28;19950;-63
2022/02/12 01:49:19;;;;;;;1999.90;999.90;;;;;;;1.90;72.45;102879.84;15787589;28;20052;-64
2022/02/12 01:56:53;;;;;;;1999.90;999.90;;;;;;;1.72;72.37;102880.59;15737668;28;20045;-64
2022/02/12 02:04:26;;;;;;;1999.90;999.90;;;;;;;1.57;73.06;102897.44;15743834;28;20036;-62
2022/02/12 02:12:00;;;;;;;1999.90;999.90;;;;;;;1.52;72.64;102899.97;15711358;28;20108;-63
2022/02/12 02:19:33;;;;;;;1999.90;999.90;;;;;;;1.52;72.30;102902.72;15709969;28;20036;-63
2022/02/12 02:27:11;;;;;;;1999.90;999.90;;;;;;;1.59;72.92;102898.03;15698395;28;20045;-64
2022/02/12 02:34:49;;;;;;;1999.90;999.90;;;;;;;1.56;71.87;102903.97;15720714;28;20041;-62
2022/02/12 02:42:23;;;;;;;1999.90;999.90;;;;;;;1.47;72.84;102897.06;15695008;28;20056;-63
2022/02/12 02:49:55;;;;;;;1999.90;999.90;;;;;;;1.47;72.24;102888.78;15707180;28;20048;-64
2022/02/12 02:57:28;;;;;;;1999.90;999.90;;;;;;;1.43;71.91;102887.53;15750360;28;20520;-63
2022/02/12 03:05:00;;;;;;;;;;;;;;;1.33;71.67;102887.16;15750107;28;20048;-62
2022/02/12 03:12:35;;;;;;;1999.90;999.90;;;;;;;1.17;72.25;102884.91;15749541;28;19966;-63
2022/02/12 03:20:08;;;;;;;1999.90;999.90;;;;;;;1.09;72.46;102889.59;15730391;28;20037;-63
2022/02/12 03:27:41;;;;;;;;;;;;;;;1.33;71.84;102890.75;15749197;28;20043;-64
2022/02/12 03:35:14;;;;;;;1999.90;999.90;;;;;;;1.19;71.66;102897.38;15730376;28;19943;-62
2022/02/12 03:42:47;;;;;;;1999.90;999.90;;;;;;;1.05;71.70;102893.84;15748069;28;20083;-63
2022/02/12 03:50:19;;;;;;;;;;;;;;;1.12;72.26;102891.03;15729548;28;20064;-62
2022/02/12 03:57:53;;;;;;;1999.90;999.90;;;;;;;0.88;72.54;102897.25;15743035;28;20331;-63
2022/02/12 04:05:25;;;;;;;1999.90;999.90;;;;;;;0.98;72.49;102879.25;15724810;28;20055;-66
2022/02/12 04:12:59;;;;;;;1999.90;999.90;;;;;;;0.91;73.02;102886.66;15703989;28;20049;-65
2022/02/12 04:20:31;;;;;;;1999.90;999.90;;;;;;;0.95;72.70;102882.44;15743375;28;20047;-65
2022/02/12 04:28:08;;;;;;;1999.90;999.90;;;;;;;0.93;72.30;102881.78;15747066;28;20057;-64
2022/02/12 04:35:40;;;;;;;1999.90;999.90;;;;;;;0.80;72.29;102877.19;15745528;28;20101;-64
2022/02/12 04:43:14;;;;;;;1999.90;999.90;;;;;;;0.90;70.63;102876.75;15727113;28;20127;-64
2022/02/12 04:50:46;;;;;;;1999.90;999.90;;;;;;;0.71;71.71;102875.72;15744297;28;20549;-65
2022/02/12 04:58:19;;;;;;;1999.90;999.90;;;;;;;0.69;70.75;102872.34;15725659;28;20102;-63
2022/02/12 05:05:51;;;;;;;;;;;;;;;0.69;72.13;102871.50;15725994;28;20044;-62
2022/02/12 05:13:24;;;;;;;1999.90;999.90;;;;;;;0.58;71.65;102862.88;15741871;28;19963;-65
2022/02/12 05:20:57;;;;;;;;;;;;;;;0.50;71.68;102868.56;15742366;28;20468;-62
2022/02/12 05:28:30;;;;;;;1999.90;999.90;;;;;;;0.49;70.94;102879.78;15741457;28;20369;-63
2022/02/12 05:36:03;;;;;;;1999.90;999.90;;;;;;;0.22;71.87;102876.22;15723054;28;20064;-63
2022/02/12 05:43:36;;;;;;;1999.90;999.90;;;;;;;0.35;72.31;102880.88;15726409;28;20450;-62
2022/02/12 05:51:08;;;;;;;1999.90;999.90;;;;;;;0.36;72.67;102877.91;15734903;28;20041;-63
2022/02/12 05:58:54;;;;;;;1999.90;999.90;;;;;;;0.39;72.90;102882.97;15722003;28;20084;-66
2022/02/12 06:06:26;;;;;;;1999.90;999.90;;;;;;;0.33;72.27;102886.56;15740222;28;20045;-65
2022/02/12 06:13:59;;;;;;;1999.90;999.90;;;;;;;-0.02;74.12;102877.69;15715790;28;20102;-64
2022/02/12 06:21:31;;;;;;;1999.90;999.90;;;;;;;0.00;74.59;102886.56;15740087;28;20052;-65
2022/02/12 06:29:05;;;;;;;1999.90;999.90;;;;;;;0.25;74.17;102884.88;15705431;28;20048;-63
2022/02/12 06:36:38;;;;;;;;;;;;;;;0.27;73.55;102884.66;15721280;28;20086;-60
2022/02/12 06:44:11;;;;;;;1999.90;999.90;;;;;;;0.13;75.07;102896.72;15721647;28;19932;-63
2022/02/12 06:51:43;;;;;;;;;;;;;;;0.36;74.36;102899.88;15738720;28;20036;-59
2022/02/12 06:59:16;;;;;;;1999.90;999.90;;;;;;;0.49;74.78;102901.75;15720687;28;19974;-63
2022/02/12 07:06:48;;;;;;;;;;;;;;;0.55;74.70;102896.28;15721587;28;20083;-60
2022/02/12 07:14:27;;;;;;;1999.90;999.90;;;;;;;0.71;74.58;102905.13;15700691;28;19921;-60
2022/02/12 07:21:59;;;;;;;;;;;;;;;1.07;73.54;102913.72;15676769;28;20387;-60
2022/02/12 07:29:32;;;;;;;1999.90;999.90;;;;;;;1.44;74.09;102914.81;15675511;28;19921;-61
2022/02/12 07:37:04;;;;;;;;;;;;;;;3.13;68.57;102921.34;15662244;28;20065;-62
2022/02/12 07:44:37;;;;;;;1999.90;999.90;;;;;;;3.41;66.53;102926.28;15668846;28;19963;-62
2022/02/12 07:52:09;;;;;;;1999.90;999.90;;;;;;;3.43;66.23;102924.97;15670148;28;20452;-62
2022/02/12 07:59:43;;;;;;;1999.90;999.90;;;;;;;4.05;64.70;102917.31;15667571;28;20045;-61
2022/02/12 08:07:31;;;;;;;1999.90;999.90;;;;;;;4.38;64.78;102904.91;15668430;28;20406;-61
2022/02/12 08:15:05;;;;;;;1999.90;999.90;;;;;;;4.72;64.12;102899.63;15692514;28;20052;-60
2022/02/12 08:22:37;;;;;;;1999.90;999.90;;;;;;;5.46;60.82;102909.00;15728702;28;20505;-63
2022/02/12 08:30:11;;;;;;;1999.90;999.90;;;;;;;6.22;60.09;102913.25;15711553;28;20106;-61
2022/02/12 08:37:45;;;;;;;1999.90;999.90;;;;;;;6.60;59.19;102906.13;15735069;28;20466;-61
2022/02/12 08:45:19;;;;;;;1999.90;999.90;;;;;;;6.49;59.08;102910.69;15707653;28;20466;-60
2022/02/12 08:52:51;;;;;;;1999.90;999.90;;;;;;;6.99;57.62;102917.28;15723581;28;20425;-60
2022/02/12 09:00:24;;;;;;;1999.90;999.90;;;;;;;7.57;57.12;102924.13;15667369;28;20045;-59
2022/02/12 09:07:56;;;;;;;1999.90;999.90;;;;;;;8.16;55.39;102918.69;15722862;28;20098;-58
2022/02/12 09:15:30;;;;;;;1999.90;999.90;;;;;;;9.78;52.28;102916.94;15699743;28;20051;-61
2022/02/12 09:23:02;;;;;;;1999.90;999.90;;;;;;;9.82;51.52;102915.28;15686560;28;20049;-60
2022/02/12 09:30:36;;;;;;;1999.90;999.90;;;;;;;10.82;49.55;102925.13;15715405;28;20039;-58
2022/02/12 09:38:10;;;;;;;1999.90;999.90;;;;;;;11.87;46.47;102921.44;15723423;28;20643;-57
2022/02/12 09:45:54;;;;;;;1999.90;999.90;;;;;;;10.30;50.31;102906.72;15737665;28;20045;-58
2022/02/12 09:53:29;;;;;;;1999.90;999.90;;;;;;;11.52;46.95;102901.75;15702191;28;20040;-58
2022/02/12 10:01:03;;;;;;;1999.90;999.90;;;;;;;11.95;47.21;102898.47;15675667;28;20084;-57
2022/02/12 10:08:37;;;;;;;1999.90;999.90;;;;;;;13.40;43.77;102881.69;15704588;28;20071;-62
2022/02/12 10:16:10;;;;;;;;;;;;;;;12.10;45.22;102890.81;15721050;28;20048;-61
2022/02/12 10:23:42;;;;;;;1999.90;999.90;;;;;;;13.24;42.85;102879.09;15739723;28;20014;-62
2022/02/12 10:31:16;;;;;;;1999.90;999.90;;;;;;;12.38;44.09;102880.78;15721046;28;20060;-63
2022/02/12 10:38:50;;;;;;;1999.90;999.90;;;;;;;14.73;39.63;102878.53;15738523;28;20102;-63
2022/02/12 10:46:24;;;;;;;1999.90;999.90;;;;;;;13.84;41.46;102870.13;15721240;28;20037;-62
2022/02/12 10:54:04;;;;;;;1999.90;999.90;;;;;;;14.29;40.08;102845.31;15740138;28;20673;-64
2022/02/12 11:01:38;;;;;;;1999.90;999.90;;;;;;;13.96;40.33;102833.19;15739735;28;20051;-64
2022/02/12 11:09:10;;;;;;;1999.90;999.90;;;;;;;14.04;39.84;102824.91;15718124;28;20488;-62
2022/02/12 11:16:45;;;;;;;1999.90;999.90;;;;;;;14.95;38.68;102816.00;15694568;28;20044;-62
2022/02/12 11:24:19;;;;;;;1999.90;999.90;;;;;;;14.57;39.21;102796.47;15687289;28;20084;-60
2022/02/12 11:32:11;;;;;;;1999.90;999.90;;;;;;;14.49;38.25;102791.59;15686009;28;20506;-61
2022/02/12 11:40:12;;;;;;;1999.90;999.90;;;;;;;12.29;40.78;102773.34;15668511;28;20156;-63
2022/02/12 11:48:08;;;;;;;1999.90;999.90;;;;;;;13.00;38.03;102755.72;15686237;28;20053;-64
2022/02/12 11:55:42;;;;;;;1999.90;999.90;;;;;;;13.37;34.84;102756.13;15692622;28;20064;-64
2022/02/12 12:03:14;;;;;;;1999.90;999.90;;;;;;;13.38;34.53;102741.78;15743039;28;20049;-64
2022/02/12 12:11:13;;;;;;;1999.90;999.90;;;;;;;14.21;34.66;102723.28;15717003;28;20480;-64
2022/02/12 12:18:46;;;;;;;1999.90;999.90;;;;;;;13.40;33.13;102719.03;15711300;28;20040;-64
2022/02/12 12:26:20;;;;;;;;;;;;;;;13.79;33.48;102702.69;15705047;28;20041;-62
2022/02/12 12:33:52;;;;;;;1999.90;999.90;;;;;;;12.61;35.32;102691.53;15684003;28;20440;-64
2022/02/12 12:41:30;;;;;;;1999.90;999.90;;;;;;;11.10;39.84;102669.41;15685028;28;20052;-63
2022/02/12 12:49:06;;;;;;;1999.90;999.90;;;;;;;11.48;39.63;102659.38;15738670;28;20118;-64
2022/02/12 12:56:40;;;;;;;1999.90;999.90;;;;;;;9.93;41.63;102650.34;15727284;28;20199;-64
2022/02/12 13:04:13;;;;;;;;;;;;;;;12.85;35.76;102634.63;15736258;28;20060;-64
2022/02/12 13:11:46;;;;;;;1999.90;999.90;;;;;;;11.93;38.43;102626.53;15718650;28;19936;-64
2022/02/12 13:19:20;;;;;;;1999.90;999.90;;;;;;;10.89;40.15;102621.22;15713421;28;20044;-64
2022/02/12 13:26:54;;;;;;;;;;;;;;;10.22;41.64;102604.00;15691175;28;20592;-64
2022/02/12 13:34:27;;;;;;;1999.90;999.90;;;;;;;13.91;35.63;102601.16;15689721;28;19920;-64
2022/02/12 13:42:01;;;;;;;1999.90;999.90;;;;;;;13.85;34.60;102592.00;15670766;28;20045;-64
2022/02/12 13:49:38;;;;;;;1999.90;999.90;;;;;;;13.28;35.57;102571.72;15687018;28;20087;-64
2022/02/12 13:57:13;;;;;;;1999.90;999.90;;;;;;;10.02;40.98;102560.25;15689775;28;20457;-64
2022/02/12 14:04:45;;;;;;;1999.90;999.90;;;;;;;11.37;39.08;102544.00;15693765;28;20056;-63
2022/02/12 14:12:21;;;;;;;1999.90;999.90;;;;;;;8.24;45.90;102542.72;15687302;28;20045;-63
2022/02/12 14:19:55;;;;;;;1999.90;999.90;;;;;;;8.02;46.93;102532.63;15711770;28;20044;-63
2022/02/12 14:27:28;;;;;;;1999.90;999.90;;;;;;;8.61;44.52;102514.72;15741660;28;20505;-63
2022/02/12 14:35:01;;;;;;;1999.90;999.90;;;;;;;7.60;46.61;102510.44;15738616;28;20052;-63
2022/02/12 14:42:34;;;;;;;1999.90;999.90;;;;;;;7.68;46.23;102495.19;15705965;28;20045;-63
2022/02/12 14:50:08;;;;;;;1999.90;999.90;;;;;;;7.75;47.42;102479.97;15713937;28;20554;-63
2022/02/12 14:57:41;;;;;;;;;;;;;;;7.46;47.52;102468.41;15732614;28;20041;-63
2022/02/12 15:05:13;;;;;;;1999.90;999.90;;;;;;;7.14;48.46;102456.56;15732534;28;20402;-63
2022/02/12 15:12:48;;;;;;;1999.90;999.90;;;;;;;7.23;49.14;102450.25;15740627;28;20073;-63
2022/02/12 15:20:21;;;;;;;1999.90;999.90;;;;;;;6.99;49.27;102435.09;15701884;28;20086;-63
2022/02/12 15:27:54;;;;;;;1999.90;999.90;;;;;;;6.84;50.18;102429.44;15692452;28;20544;-63
2022/02/12 15:35:26;;;;;;;1999.90;999.90;;;;;;;6.81;50.11;102403.06;15750113;28;20053;-63
2022/02/12 15:43:00;;;;;;;1999.90;999.90;;;;;;;6.34;50.44;102401.00;15691040;28;20411;-62
2022/02/12 15:50:33;;;;;;;1999.90;999.90;;;;;;;6.29;50.46;102397.38;15669297;28;20075;-63
2022/02/12 15:58:07;;;;;;;1999.90;999.90;;;;;;;6.51;50.74;102387.03;15710875;28;20051;-63
2022/02/12 16:05:39;;;;;;;1999.90;999.90;;;;;;;6.17;50.26;102372.59;15731340;28;20070;-63
2022/02/12 16:13:13;;;;;;;1999.90;999.90;;;;;;;6.07;49.13;102364.19;15731795;28;20539;-62
2022/02/12 16:20:49;;;;;;;1999.90;999.90;;;;;;;6.03;48.80;102347.22;15748645;28;20044;-62
2022/02/12 16:28:22;;;;;;;1999.90;999.90;;;;;;;5.63;49.95;102346.81;15737147;28;20102;-64
2022/02/12 16:35:54;;;;;;;1999.90;999.90;;;;;;;5.64;50.22;102345.72;15667650;28;20467;-64
2022/02/12 16:43:28;;;;;;;1999.90;999.90;;;;;;;5.63;50.03;102339.34;15650815;28;20037;-62
2022/02/12 16:51:00;;;;;;;1999.90;999.90;;;;;;;5.39;50.76;102333.22;15648519;28;20131;-63
2022/02/12 16:58:36;;;;;;;1999.90;999.90;;;;;;;5.15;51.70;102329.91;15682540;28;20057;-63
2022/02/12 17:06:08;;;;;;;1999.90;999.90;;;;;;;5.12;52.60;102313.81;15681985;28;20053;-62
2022/02/12 17:13:44;;;;;;;1999.90;999.90;;;;;;;5.30;52.19;102318.16;15671907;28;20067;-63
2022/02/12 17:21:16;;;;;;;1999.90;999.90;;;;;;;4.96;53.21;102311.94;15675222;28;20049;-63
2022/02/12 17:28:50;;;;;;;1999.90;999.90;;;;;;;5.11;52.94;102319.63;15678244;28;20036;-62
2022/02/12 17:36:22;;;;;;;1999.90;999.90;;;;;;;4.93;53.70;102305.00;15742528;28;20040;-63
2022/02/12 17:43:55;;;;;;;1999.90;999.90;;;;;;;4.69;54.13;102295.28;15742735;28;20086;-62
2022/02/12 17:51:28;;;;;;;1999.90;999.90;;;;;;;4.58;54.79;102283.22;15742112;28;20055;-62
2022/02/12 17:59:01;;;;;;;1999.90;999.90;;;;;;;4.50;55.09;102283.66;15719555;28;20041;-62
2022/02/12 18:06:34;;;;;;;1999.90;999.90;;;;;;;4.58;55.66;102279.59;15693891;28;20580;-62
2022/02/12 18:14:08;;;;;;;1999.90;999.90;;;;;;;4.41;56.37;102270.53;15705660;28;21631;-62
2022/02/12 18:21:40;;;;;;;1999.90;999.90;;;;;;;4.47;56.16;102253.75;15733890;28;20045;-61
2022/02/12 18:29:16;;;;;;;1999.90;999.90;;;;;;;4.46;56.58;102243.78;15644362;22;20070;-59
2022/02/12 18:36:49;;;;;;;1999.90;999.90;;;;;;;4.29;57.58;102237.47;15589207;28;20128;-61
2022/02/12 18:44:22;;;;;;;1999.90;999.90;;;;;;;4.12;58.24;102214.56;15538065;28;20037;-60
2022/02/12 18:51:55;;;;;;;1999.90;999.90;;;;;;;4.31;57.70;102215.94;15550231;28;20284;-63
2022/02/12 18:59:29;;;;;;;1999.90;999.90;;;;;;;3.93;59.14;102200.16;15498069;28;20053;-60
2022/02/12 19:07:08;;;;;;;1999.90;999.90;;;;;;;3.91;59.15;102183.03;15495636;28;20121;-60
2022/02/12 19:14:42;;;;;;;1999.90;999.90;;;;;;;3.67;60.38;102177.69;15472707;28;20046;-59
2022/02/12 19:22:16;;;;;;;1999.90;999.90;;;;;;;4.03;59.57;102173.53;15533092;28;20385;-60
2022/02/12 19:29:56;;;;;;;1999.90;999.90;;;;;;;3.87;60.89;102159.78;15529660;28;20147;-60
2022/02/12 19:37:29;;;;;;;1999.90;999.90;;;;;;;3.72;61.24;102157.59;15522235;28;20085;-59
2022/02/12 19:45:09;;;;;;;1999.90;999.90;;;;;;;3.80;61.46;102161.88;15528058;28;20459;-59
2022/02/12 19:52:42;;;;;;;1999.90;999.90;;;;;;;3.50;62.29;102146.47;15504468;28;20478;-61
2022/02/12 20:00:17;;;;;;;1999.90;999.90;;;;;;;3.45;62.84;102133.44;15479651;28;20042;-61
2022/02/12 20:07:49;;;;;;;1999.90;999.90;;;;;;;3.46;62.82;102134.28;15508737;28;20105;-59
2022/02/12 20:15:24;;;;;;;1999.90;999.90;;;;;;;3.38;63.28;102121.72;15495108;28;20037;-58
2022/02/12 20:22:57;;;;;;;1999.90;999.90;;;;;;;3.40;63.38;102118.72;15510025;28;20038;-62
2022/02/12 20:30:30;;;;;;;1999.90;999.90;;;;;;;3.35;63.98;102110.38;15536229;28;20037;-62
2022/02/12 20:38:05;;;;;;;1999.90;999.90;;;;;;;3.30;64.32;102099.22;15511837;28;20104;-61
2022/02/12 20:45:39;;;;;;;1999.90;999.90;;;;;;;3.08;65.40;102097.22;15502984;28;20380;-63
2022/02/12 20:53:11;;;;;;;;;;;;;;;3.50;64.60;102079.41;15526867;28;20046;-61
2022/02/12 21:00:44;;;;;;;1999.90;999.90;;;;;;;3.18;65.29;102075.31;15486096;28;19921;-62
2022/02/12 21:08:19;;;;;;;1999.90;999.90;;;;;;;3.11;65.71;102071.06;15501978;28;20051;-61
2022/02/12 21:15:53;;;;;;;1999.90;999.90;;;;;;;3.29;65.19;102050.66;15498210;28;20434;-62
2022/02/12 21:23:33;;;;;;;1999.90;999.90;;;;;;;3.14;65.31;102059.53;15527417;28;20038;-58
2022/02/12 21:31:07;;;;;;;1999.90;999.90;;;;;;;3.37;64.99;102047.47;15521600;28;20152;-64
2022/02/12 21:38:41;;;;;;;1999.90;999.90;;;;;;;3.27;65.03;102023.31;15540207;28;20049;-62
2022/02/12 21:46:15;;;;;;;1999.90;999.90;;;;;;;3.39;64.27;102032.34;15554412;28;20461;-63
2022/02/12 21:53:47;;;;;;;1999.90;999.90;;;;;;;3.10;65.02;102019.72;15554028;28;20665;-63
2022/02/12 22:01:22;;;;;;;1999.90;999.90;;;;;;;3.23;64.83;102013.91;15536388;28;20108;-60
2022/02/12 22:08:58;;;;;;;1999.90;999.90;;;;;;;3.14;64.96;102009.88;15565636;28;20120;-64
2022/02/12 22:16:31;;;;;;;1999.90;999.90;;;;;;;3.05;65.02;102001.19;15526100;28;20115;-63
2022/02/12 22:24:05;;;;;;;1999.90;999.90;;;;;;;3.25;64.64;101991.56;15473057;28;20050;-64
2022/02/12 22:31:41;;;;;;;1999.90;999.90;;;;;;;3.13;64.93;101975.97;15523607;28;20167;-62
2022/02/12 22:39:13;;;;;;;1999.90;999.90;;;;;;;2.87;65.57;101977.47;15528881;28;20129;-63
2022/02/12 22:46:46;;;;;;;1999.90;999.90;;;;;;;3.02;65.23;101962.22;15527141;28;20081;-63
2022/02/12 22:54:18;;;;;;;1999.90;999.90;;;;;;;3.07;65.53;101960.41;15528215;28;20053;-61
2022/02/12 23:01:52;;;;;;;1999.90;999.90;;;;;;;3.09;65.02;101949.94;15511230;28;20049;-62
2022/02/12 23:09:24;;;;;;;;;;;;;;;3.22;64.91;101943.22;15553990;28;20050;-63
2022/02/12 23:16:58;;;;;;;1999.90;999.90;;;;;;;3.10;64.83;101942.50;15521165;28;19929;-63
2022/02/12 23:32:21;;;;;;;1999.90;999.90;;;;;;;3.10;65.11;101904.72;15518717;28;20052;-63
2022/02/12 23:39:55;;;;;;;;;;;;;;;2.86;65.40;101900.53;15504009;28;20443;-63
2022/02/12 23:47:28;;;;;;;1999.90;999.90;;;;;;;2.80;66.16;101904.28;15497061;28;19928;-63
2022/02/12 23:55:00;;;;;;;1999.90;999.90;;;;;;;2.53;66.38;101887.59;15502602;28;20062;-64
